createdAt,value
2017-12-25T00:00:59.282Z,6.90
2017-12-25T00:03:27.385Z,5.70
2017-12-25T00:05:55.504Z,5.87
2017-12-25T00:08:23.631Z,5.60
2017-12-25T00:10:51.732Z,5.90
2017-12-25T00:13:19.863Z,7.63
2017-12-25T00:15:47.950Z,6.60
2017-12-25T00:18:16.076Z,7.10
2017-12-25T00:20:44.182Z,7.20
2017-12-25T00:23:12.303Z,7.43
2017-12-25T00:25:40.609Z,7.57
2017-12-25T00:28:09.480Z,8.53
2017-12-25T00:30:37.569Z,9.23
2017-12-25T00:33:06.037Z,6.63
2017-12-25T00:35:34.142Z,8.40
2017-12-25T00:38:02.237Z,7.97
2017-12-25T00:40:30.606Z,8.70
2017-12-25T00:42:58.688Z,8.60
2017-12-25T00:45:26.831Z,8.00
2017-12-25T00:47:54.996Z,9.30
2017-12-25T00:50:23.891Z,8.53
2017-12-25T00:52:51.973Z,8.83
2017-12-25T00:55:20.061Z,8.30
2017-12-25T00:57:48.941Z,7.73
2017-12-25T01:00:17.252Z,7.37
2017-12-25T01:02:45.336Z,7.70
2017-12-25T01:05:13.441Z,6.57
2017-12-25T01:07:41.570Z,7.97
2017-12-25T01:10:09.649Z,8.40
2017-12-25T01:12:38.504Z,7.93
2017-12-25T01:15:06.567Z,8.10
2017-12-25T01:17:34.671Z,6.87
2017-12-25T01:20:03.543Z,7.23
2017-12-25T01:22:31.633Z,7.13
2017-12-25T01:24:59.728Z,7.30
2017-12-25T01:27:28.593Z,7.87
2017-12-25T01:29:56.774Z,7.47
2017-12-25T01:32:25.658Z,7.80
2017-12-25T01:34:53.745Z,7.47
2017-12-25T01:37:21.885Z,7.07
2017-12-25T01:39:50.013Z,7.43
2017-12-25T01:42:18.122Z,7.80
2017-12-25T01:44:46.208Z,7.70
2017-12-25T01:47:14.310Z,7.10
2017-12-25T01:49:42.393Z,6.50
2017-12-25T01:52:10.508Z,7.17
2017-12-25T01:54:38.813Z,7.60
2017-12-25T01:57:31.615Z,6.70
2017-12-25T02:00:20.401Z,7.37
2017-12-25T02:02:52.269Z,6.67
2017-12-25T02:08:36.425Z,6.43
2017-12-25T02:11:04.524Z,7.70
2017-12-25T02:13:38.254Z,7.37
2017-12-25T02:16:06.353Z,7.17
2017-12-25T02:18:34.449Z,7.30
2017-12-25T02:21:02.574Z,6.77
2017-12-25T02:23:31.458Z,7.03
2017-12-25T02:26:00.326Z,6.17
2017-12-25T02:28:28.653Z,6.53
2017-12-25T02:30:56.772Z,7.70
2017-12-25T02:33:24.860Z,7.83
2017-12-25T02:35:52.965Z,6.93
2017-12-25T02:38:21.833Z,8.43
2017-12-25T02:40:49.949Z,7.67
2017-12-25T02:43:18.052Z,8.10
2017-12-25T02:45:46.921Z,8.93
2017-12-25T02:48:15.026Z,8.73
2017-12-25T02:50:43.128Z,9.57
2017-12-25T02:53:12.021Z,8.83
2017-12-25T02:55:40.136Z,8.10
2017-12-25T02:58:09.001Z,9.27
2017-12-25T03:00:37.115Z,9.80
2017-12-25T03:03:05.540Z,9.53
2017-12-25T03:05:33.981Z,9.70
2017-12-25T03:08:02.082Z,9.47
2017-12-25T03:10:30.177Z,9.30
2017-12-25T03:12:58.298Z,9.33
2017-12-25T03:15:26.421Z,8.90
2017-12-25T03:17:54.501Z,9.20
2017-12-25T03:20:23.377Z,9.23
2017-12-25T03:22:51.525Z,8.37
2017-12-25T03:25:19.609Z,7.83
2017-12-25T03:27:47.949Z,8.50
2017-12-25T03:30:16.019Z,7.40
2017-12-25T03:32:44.119Z,8.13
2017-12-25T03:35:12.205Z,7.93
2017-12-25T03:37:40.345Z,7.40
2017-12-25T03:40:08.437Z,8.13
2017-12-25T03:42:36.517Z,7.90
2017-12-25T03:45:04.617Z,7.23
2017-12-25T03:47:32.765Z,7.37
2017-12-25T03:50:00.863Z,6.93
2017-12-25T03:52:28.969Z,6.10
2017-12-25T03:54:57.101Z,6.10
2017-12-25T03:57:25.218Z,5.77
2017-12-25T03:59:53.326Z,5.70
2017-12-25T04:02:21.959Z,6.40
2017-12-25T04:04:50.054Z,5.87
2017-12-25T04:07:18.210Z,5.80
2017-12-25T04:09:46.302Z,7.10
2017-12-25T04:12:15.187Z,6.67
2017-12-25T04:14:44.109Z,6.23
2017-12-25T04:17:12.969Z,6.17
2017-12-25T04:19:41.063Z,7.80
2017-12-25T04:22:09.153Z,6.23
2017-12-25T04:24:37.325Z,6.60
2017-12-25T04:27:05.453Z,6.67
2017-12-25T04:29:33.573Z,6.50
2017-12-25T04:32:01.660Z,6.30
2017-12-25T04:34:29.827Z,6.57
2017-12-25T04:36:58.747Z,5.90
2017-12-25T04:39:26.832Z,6.33
2017-12-25T04:41:54.924Z,6.60
2017-12-25T04:44:23.034Z,6.63
2017-12-25T04:46:51.125Z,6.33
2017-12-25T04:49:19.285Z,6.07
2017-12-25T04:51:47.382Z,5.30
2017-12-25T04:54:15.505Z,5.90
2017-12-25T04:56:44.373Z,6.37
2017-12-25T04:59:12.485Z,6.20
2017-12-25T05:01:41.353Z,4.50
2017-12-25T05:04:09.464Z,4.93
2017-12-25T05:06:37.637Z,5.13
2017-12-25T05:09:05.834Z,4.03
2017-12-25T05:11:34.722Z,5.00
2017-12-25T05:14:02.810Z,5.17
2017-12-25T05:16:30.902Z,4.30
2017-12-25T05:18:58.993Z,4.30
2017-12-25T05:21:27.132Z,4.87
2017-12-25T05:23:55.248Z,4.40
2017-12-25T05:26:23.338Z,3.63
2017-12-25T05:28:51.420Z,4.07
2017-12-25T05:31:19.572Z,4.10
2017-12-25T05:33:47.680Z,3.90
2017-12-25T05:36:15.777Z,4.20
2017-12-25T05:38:43.865Z,3.77
2017-12-25T05:41:11.981Z,4.33
2017-12-25T05:43:40.082Z,4.40
2017-12-25T05:46:08.205Z,3.40
2017-12-25T05:48:36.305Z,3.57
2017-12-25T05:51:04.410Z,4.13
2017-12-25T05:53:32.527Z,4.57
2017-12-25T05:56:00.622Z,4.20
2017-12-25T05:58:28.715Z,4.83
2017-12-25T06:00:56.833Z,4.43
2017-12-25T06:03:24.943Z,4.60
2017-12-25T06:05:53.043Z,5.63
2017-12-25T06:08:21.200Z,5.43
2017-12-25T06:10:49.287Z,6.03
2017-12-25T06:13:17.413Z,6.60
2017-12-25T06:15:45.524Z,7.00
2017-12-25T06:18:14.427Z,6.63
2017-12-25T06:20:42.561Z,7.53
2017-12-25T06:23:10.693Z,8.00
2017-12-25T06:25:38.790Z,7.80
2017-12-25T06:28:06.907Z,9.40
2017-12-25T06:30:38.711Z,7.87
2017-12-25T06:33:06.814Z,8.83
2017-12-25T06:35:34.908Z,8.70
2017-12-25T06:38:03.841Z,8.03
2017-12-25T06:40:31.929Z,8.30
2017-12-25T06:43:00.096Z,9.57
2017-12-25T06:45:28.190Z,7.80
2017-12-25T06:47:56.288Z,8.97
2017-12-25T06:50:25.250Z,8.77
2017-12-25T06:52:53.346Z,10.03
2017-12-25T06:55:21.653Z,9.30
2017-12-25T06:57:49.789Z,9.17
2017-12-25T07:00:17.910Z,10.00
2017-12-25T07:02:46.037Z,9.40
2017-12-25T07:05:14.417Z,9.77
2017-12-25T07:07:42.565Z,9.83
2017-12-25T07:10:10.830Z,9.23
2017-12-25T07:12:39.025Z,9.57
2017-12-25T07:15:07.106Z,8.90
2017-12-25T07:17:35.250Z,9.40
2017-12-25T07:20:03.440Z,9.47
2017-12-25T07:22:31.529Z,8.33
2017-12-25T07:24:59.706Z,8.20
2017-12-25T07:27:28.364Z,8.30
2017-12-25T07:29:56.457Z,8.87
2017-12-25T07:32:24.573Z,9.13
2017-12-25T07:34:52.696Z,8.57
2017-12-25T07:37:20.799Z,9.30
2017-12-25T07:39:49.667Z,8.33
2017-12-25T07:42:17.833Z,8.50
2017-12-25T07:44:45.928Z,8.07
2017-12-25T07:47:14.049Z,7.50
2017-12-25T07:49:42.150Z,8.47
2017-12-25T07:52:10.232Z,8.97
2017-12-25T07:54:38.538Z,9.03
2017-12-25T07:57:06.697Z,8.20
2017-12-25T07:59:35.564Z,9.90
2017-12-25T08:02:03.661Z,8.67
2017-12-25T08:04:31.756Z,8.67
2017-12-25T08:07:00.629Z,9.80
2017-12-25T08:09:28.744Z,9.77
2017-12-25T08:11:57.637Z,10.30
2017-12-25T08:14:25.748Z,9.27
2017-12-25T08:16:53.872Z,9.03
2017-12-25T08:19:21.954Z,9.07
2017-12-25T08:21:50.056Z,9.33
2017-12-25T08:24:18.132Z,9.07
2017-12-25T08:26:46.282Z,9.77
2017-12-25T08:29:14.388Z,9.00
2017-12-25T08:31:42.536Z,10.17
2017-12-25T08:34:10.630Z,9.70
2017-12-25T08:36:38.734Z,10.00
2017-12-25T08:39:06.861Z,9.53
2017-12-25T08:41:34.949Z,9.50
2017-12-25T08:44:03.817Z,10.60
2017-12-25T08:46:31.924Z,9.90
2017-12-25T08:49:00.073Z,9.00
2017-12-25T08:51:28.417Z,9.70
2017-12-25T08:53:57.332Z,9.73
2017-12-25T08:56:25.449Z,8.60
2017-12-25T08:58:54.064Z,9.03
2017-12-25T09:01:22.177Z,9.00
2017-12-25T09:03:51.192Z,9.03
2017-12-25T09:06:19.296Z,7.60
2017-12-25T09:08:47.393Z,8.60
2017-12-25T09:11:15.593Z,7.90
2017-12-25T09:13:43.725Z,7.90
2017-12-25T09:16:11.844Z,7.50
2017-12-25T09:18:39.978Z,8.53
2017-12-25T09:21:08.061Z,8.10
2017-12-25T09:23:36.494Z,7.90
2017-12-25T09:26:05.388Z,6.60
2017-12-25T09:28:34.300Z,7.17
2017-12-25T09:31:03.230Z,8.43
2017-12-25T09:33:31.338Z,7.50
2017-12-25T09:35:59.445Z,6.83
2017-12-25T09:38:27.539Z,6.60
2017-12-25T09:40:55.649Z,6.50
2017-12-25T09:43:23.823Z,6.40
2017-12-25T09:45:51.926Z,7.20
2017-12-25T09:48:20.055Z,7.07
2017-12-25T09:50:48.153Z,6.77
2017-12-25T09:53:16.252Z,6.90
2017-12-25T09:55:44.349Z,5.20
2017-12-25T09:58:12.493Z,5.80
2017-12-25T10:00:40.669Z,7.03
2017-12-25T10:03:09.018Z,6.60
2017-12-25T10:05:37.206Z,5.53
2017-12-25T10:08:05.293Z,5.80
2017-12-25T10:10:33.408Z,7.30
2017-12-25T10:13:01.522Z,6.57
2017-12-25T10:15:29.719Z,6.20
2017-12-25T10:17:57.874Z,5.83
2017-12-25T10:20:26.071Z,5.90
2017-12-25T10:22:54.202Z,6.13
2017-12-25T10:25:22.342Z,5.47
2017-12-25T10:27:50.493Z,5.67
2017-12-25T10:30:18.597Z,5.90
2017-12-25T10:32:46.725Z,5.33
2017-12-25T10:35:14.897Z,5.63
2017-12-25T10:37:43.009Z,6.70
2017-12-25T10:40:11.542Z,5.63
2017-12-25T10:42:39.684Z,5.20
2017-12-25T10:45:07.813Z,4.77
2017-12-25T10:47:36.018Z,5.40
2017-12-25T10:50:04.115Z,4.83
2017-12-25T10:52:32.213Z,4.90
2017-12-25T10:55:00.295Z,5.30
2017-12-25T10:57:28.435Z,5.00
2017-12-25T10:59:56.514Z,4.97
2017-12-25T11:02:24.637Z,4.60
2017-12-25T11:04:52.933Z,4.60
2017-12-25T11:07:21.873Z,4.80
2017-12-25T11:09:50.026Z,5.73
2017-12-25T11:12:18.158Z,4.77
2017-12-25T11:14:46.370Z,5.00
2017-12-25T11:17:14.521Z,4.70
2017-12-25T11:19:42.638Z,5.17
2017-12-25T11:22:10.731Z,4.77
2017-12-25T11:24:38.964Z,4.40
2017-12-25T11:27:07.060Z,5.47
2017-12-25T11:29:35.165Z,5.07
2017-12-25T11:32:03.268Z,5.30
2017-12-25T11:34:32.177Z,5.00
2017-12-25T11:37:01.047Z,5.10
2017-12-25T11:39:29.128Z,6.00
2017-12-25T11:41:57.225Z,5.47
2017-12-25T11:44:25.332Z,5.30
2017-12-25T11:46:54.241Z,5.27
2017-12-25T11:49:23.115Z,5.10
2017-12-25T11:51:51.222Z,5.30
2017-12-25T11:54:20.113Z,4.90
2017-12-25T11:56:48.207Z,5.60
2017-12-25T11:59:16.315Z,4.93
2017-12-25T12:01:45.352Z,4.97
2017-12-25T12:04:13.441Z,4.80
2017-12-25T12:06:41.578Z,5.37
2017-12-25T12:09:09.672Z,4.67
2017-12-25T12:11:37.769Z,4.23
2017-12-25T12:14:05.896Z,4.40
2017-12-25T12:16:34.006Z,4.57
2017-12-25T12:19:02.153Z,5.00
2017-12-25T12:21:30.416Z,4.53
2017-12-25T12:23:59.364Z,4.47
2017-12-25T12:26:27.530Z,4.27
2017-12-25T12:28:56.565Z,4.60
2017-12-25T12:31:24.657Z,4.50
2017-12-25T12:33:53.525Z,4.30
2017-12-25T12:36:21.653Z,3.90
2017-12-25T12:38:49.799Z,4.60
2017-12-25T12:41:17.867Z,4.80
2017-12-25T12:43:45.992Z,4.60
2017-12-25T12:46:14.861Z,4.70
2017-12-25T12:48:42.961Z,3.43
2017-12-25T12:51:11.138Z,8.00
2017-12-25T12:53:39.276Z,4.47
2017-12-25T12:56:07.504Z,4.30
2017-12-25T12:58:35.590Z,4.00
2017-12-25T13:01:03.740Z,4.20
2017-12-25T13:03:32.819Z,4.27
2017-12-25T13:06:01.677Z,4.23
2017-12-25T13:08:29.828Z,4.20
2017-12-25T13:10:57.942Z,4.47
2017-12-25T13:13:26.145Z,4.10
2017-12-25T13:15:54.378Z,4.00
2017-12-25T13:18:22.427Z,4.10
2017-12-25T13:20:50.526Z,4.33
2017-12-25T13:23:19.633Z,3.67
2017-12-25T13:25:48.489Z,4.20
2017-12-25T13:28:16.598Z,4.43
2017-12-25T13:30:44.777Z,4.20
2017-12-25T13:33:12.912Z,3.73
2017-12-25T13:35:41.016Z,3.90
2017-12-25T13:38:09.115Z,4.27
2017-12-25T13:40:37.208Z,4.13
2017-12-25T13:43:05.314Z,4.50
2017-12-25T13:45:33.412Z,4.30
2017-12-25T13:48:02.309Z,4.13
2017-12-25T13:50:30.409Z,3.77
2017-12-25T13:52:58.511Z,4.30
2017-12-25T13:55:26.733Z,4.77
2017-12-25T13:57:54.838Z,3.50
2017-12-25T14:00:22.977Z,4.80
2017-12-25T14:02:51.174Z,4.30
2017-12-25T14:05:19.262Z,4.33
2017-12-25T14:07:47.406Z,4.40
2017-12-25T14:10:15.570Z,4.50
2017-12-25T14:12:44.524Z,5.30
2017-12-25T14:15:12.732Z,3.90
2017-12-25T14:17:40.842Z,4.17
2017-12-25T14:20:08.965Z,4.27
2017-12-25T14:22:37.082Z,4.27
2017-12-25T14:25:05.219Z,4.80
2017-12-25T14:27:33.318Z,4.30
2017-12-25T14:30:01.449Z,4.50
2017-12-25T14:32:29.564Z,4.37
2017-12-25T14:34:57.699Z,4.30
2017-12-25T14:37:25.855Z,4.50
2017-12-25T14:39:54.001Z,4.40
2017-12-25T14:42:22.112Z,4.50
2017-12-25T14:44:50.210Z,4.30
2017-12-25T14:47:18.316Z,3.73
2017-12-25T14:49:46.424Z,4.80
2017-12-25T14:52:14.581Z,4.10
2017-12-25T14:54:42.762Z,3.80
2017-12-25T14:57:10.888Z,3.80
2017-12-25T14:59:38.987Z,4.10
2017-12-25T15:02:07.882Z,3.67
2017-12-25T15:04:36.004Z,4.33
2017-12-25T15:07:04.088Z,4.20
2017-12-25T15:09:32.246Z,4.40
2017-12-25T15:12:01.166Z,4.03
2017-12-25T15:14:29.314Z,4.37
2017-12-25T15:16:57.406Z,3.80
2017-12-25T15:19:26.320Z,3.97
2017-12-25T15:21:54.403Z,3.67
2017-12-25T15:24:23.276Z,3.90
2017-12-25T15:26:51.357Z,3.50
2017-12-25T15:29:19.617Z,3.33
2017-12-25T15:31:47.815Z,3.50
2017-12-25T15:34:15.889Z,3.30
2017-12-25T15:36:44.867Z,3.27
2017-12-25T15:39:13.044Z,3.90
2017-12-25T15:41:41.893Z,3.17
2017-12-25T15:44:09.985Z,3.40
2017-12-25T15:46:38.103Z,3.47
2017-12-25T15:49:06.960Z,4.10
2017-12-25T15:51:35.041Z,3.43
2017-12-25T15:54:03.979Z,3.93
2017-12-25T15:56:32.107Z,3.57
2017-12-25T15:59:00.206Z,3.70
2017-12-25T16:01:28.287Z,3.10
2017-12-25T16:04:00.342Z,3.20
2017-12-25T16:06:28.443Z,3.87
2017-12-25T16:08:56.557Z,3.50
2017-12-25T16:11:24.668Z,3.90
2017-12-25T16:13:53.551Z,3.50
2017-12-25T16:16:21.682Z,3.77
2017-12-25T16:18:50.070Z,3.67
2017-12-25T16:21:18.189Z,3.33
2017-12-25T16:23:46.274Z,3.50
2017-12-25T16:26:14.424Z,4.10
2017-12-25T16:28:42.514Z,3.77
2017-12-25T16:31:10.628Z,3.13
2017-12-25T16:33:38.735Z,3.40
2017-12-25T16:36:06.841Z,3.60
2017-12-25T16:38:34.930Z,3.40
2017-12-25T16:41:03.791Z,3.53
2017-12-25T16:43:31.885Z,3.30
2017-12-25T16:46:00.007Z,3.20
2017-12-25T16:48:28.888Z,3.10
2017-12-25T16:50:57.014Z,2.90
2017-12-25T16:53:25.128Z,3.20
2017-12-25T16:55:53.217Z,2.93
2017-12-25T16:58:21.313Z,2.50
2017-12-25T17:00:49.546Z,2.73
2017-12-25T17:03:18.397Z,2.37
2017-12-25T17:05:46.508Z,2.20
2017-12-25T17:08:15.371Z,2.10
2017-12-25T17:10:43.512Z,2.30
2017-12-25T17:13:11.578Z,3.03
2017-12-25T17:15:41.261Z,2.50
2017-12-25T17:18:09.366Z,2.40
2017-12-25T17:20:37.486Z,2.73
2017-12-25T17:23:05.606Z,3.10
2017-12-25T17:25:33.691Z,2.70
2017-12-25T17:28:01.815Z,2.20
2017-12-25T17:30:29.919Z,2.07
2017-12-25T17:32:58.037Z,2.20
2017-12-25T17:35:26.187Z,2.90
2017-12-25T17:37:55.128Z,3.80
2017-12-25T17:40:23.257Z,2.67
2017-12-25T17:42:51.410Z,2.80
2017-12-25T17:45:19.536Z,3.07
2017-12-25T17:47:48.433Z,2.90
2017-12-25T17:50:17.340Z,3.10
2017-12-25T17:52:46.229Z,3.77
2017-12-25T17:55:14.420Z,3.30
2017-12-25T17:57:42.506Z,3.20
2017-12-25T18:00:11.581Z,4.03
2017-12-25T18:02:39.717Z,3.90
2017-12-25T18:05:08.742Z,3.37
2017-12-25T18:07:36.849Z,3.90
2017-12-25T18:10:04.954Z,3.23
2017-12-25T18:12:33.452Z,3.60
2017-12-25T18:15:01.587Z,3.50
2017-12-25T18:17:29.665Z,4.00
2017-12-25T18:19:57.781Z,4.30
2017-12-25T18:22:25.891Z,4.33
2017-12-25T18:24:54.010Z,4.00
2017-12-25T18:27:22.898Z,4.00
2017-12-25T18:29:51.809Z,4.03
2017-12-25T18:32:19.937Z,4.00
2017-12-25T18:34:48.037Z,3.57
2017-12-25T18:37:16.132Z,3.40
2017-12-25T18:39:44.286Z,3.43
2017-12-25T18:42:12.373Z,3.87
2017-12-25T18:44:40.465Z,3.83
2017-12-25T18:47:08.566Z,3.80
2017-12-25T18:49:36.697Z,3.37
2017-12-25T18:52:04.806Z,4.10
2017-12-25T18:54:32.973Z,3.03
2017-12-25T18:57:01.101Z,3.17
2017-12-25T18:59:29.245Z,3.30
2017-12-25T19:01:57.449Z,3.80
2017-12-25T19:04:25.550Z,3.30
2017-12-25T19:06:53.747Z,3.03
2017-12-25T19:09:21.936Z,2.70
2017-12-25T19:11:50.051Z,2.97
2017-12-25T19:14:18.247Z,3.10
2017-12-25T19:16:46.345Z,3.27
2017-12-25T19:19:14.469Z,3.07
2017-12-25T19:21:42.806Z,3.23
2017-12-25T19:24:10.889Z,3.00
2017-12-25T19:26:38.997Z,3.40
2017-12-25T19:29:07.097Z,4.03
2017-12-25T19:31:36.167Z,4.20
2017-12-25T19:34:04.289Z,4.80
2017-12-25T19:36:32.398Z,5.60
2017-12-25T19:39:00.476Z,5.03
2017-12-25T19:41:28.580Z,6.23
2017-12-25T19:43:57.455Z,6.90
2017-12-25T19:46:25.579Z,7.37
2017-12-25T19:48:53.678Z,9.07
2017-12-25T19:51:21.770Z,8.80
2017-12-25T19:53:49.872Z,9.20
2017-12-25T19:56:18.067Z,9.30
2017-12-25T19:58:46.190Z,10.17
2017-12-25T20:01:14.324Z,9.07
2017-12-25T20:03:42.470Z,9.93
2017-12-25T20:06:10.578Z,10.50
2017-12-25T20:08:38.772Z,9.83
2017-12-25T20:11:06.865Z,10.07
2017-12-25T20:13:34.962Z,9.00
2017-12-25T20:16:03.057Z,9.83
2017-12-25T20:18:31.266Z,8.57
2017-12-25T20:20:59.354Z,7.73
2017-12-25T20:23:28.220Z,8.73
2017-12-25T20:25:56.322Z,9.10
2017-12-25T20:28:24.671Z,9.00
2017-12-25T20:30:52.786Z,8.00
2017-12-25T20:33:20.906Z,8.00
2017-12-25T20:35:49.778Z,8.30
2017-12-25T20:38:17.883Z,8.00
2017-12-25T20:40:46.774Z,7.10
2017-12-25T20:43:14.886Z,7.80
2017-12-25T20:45:43.005Z,7.23
2017-12-25T20:48:11.367Z,7.50
2017-12-25T20:50:39.458Z,8.00
2017-12-25T20:53:07.796Z,7.73
2017-12-25T20:55:35.963Z,8.10
2017-12-25T20:58:04.080Z,7.50
2017-12-25T21:00:32.289Z,7.50
2017-12-25T21:03:00.417Z,7.90
2017-12-25T21:05:28.546Z,7.47
2017-12-25T21:07:57.417Z,7.10
2017-12-25T21:10:25.525Z,8.20
2017-12-25T21:12:54.425Z,7.30
2017-12-25T21:15:23.321Z,7.00
2017-12-25T21:17:51.649Z,6.33
2017-12-25T21:20:19.753Z,6.70
2017-12-25T21:22:47.877Z,6.13
2017-12-25T21:25:15.987Z,6.70
2017-12-25T21:27:44.856Z,6.10
2017-12-25T21:30:12.993Z,5.03
2017-12-25T21:32:41.108Z,6.30
2017-12-25T21:35:09.194Z,5.50
2017-12-25T21:37:37.405Z,6.27
2017-12-25T21:40:05.568Z,6.60
2017-12-25T21:42:33.708Z,6.10
2017-12-25T21:45:02.027Z,7.03
2017-12-25T21:47:30.205Z,6.20
2017-12-25T21:49:58.322Z,6.60
2017-12-25T21:52:26.458Z,6.30
2017-12-25T21:54:54.570Z,7.30
2017-12-25T21:57:22.662Z,7.00
2017-12-25T21:59:50.793Z,6.50
2017-12-25T22:02:18.894Z,7.20
2017-12-25T22:04:47.002Z,7.83
2017-12-25T22:07:33.738Z,7.83
2017-12-25T22:10:01.885Z,7.60
2017-12-25T22:12:29.966Z,7.63
2017-12-25T22:14:58.092Z,8.10
2017-12-25T22:17:26.193Z,8.30
2017-12-25T22:19:54.329Z,9.17
2017-12-25T22:22:22.440Z,8.27
2017-12-25T22:24:50.550Z,8.77
2017-12-25T22:27:18.645Z,8.37
2017-12-25T22:29:47.614Z,6.90
2017-12-25T22:32:15.769Z,7.60
2017-12-25T22:34:43.979Z,7.73
2017-12-25T22:37:12.137Z,9.20
2017-12-25T22:39:40.294Z,7.77
2017-12-25T22:42:08.422Z,7.07
2017-12-25T22:44:36.535Z,7.10
2017-12-25T22:47:04.649Z,7.40
2017-12-25T22:49:32.986Z,6.97
2017-12-25T22:52:01.100Z,6.27
2017-12-25T22:54:29.526Z,5.80
2017-12-25T22:56:58.483Z,6.30
2017-12-25T22:59:26.627Z,5.83
2017-12-25T23:01:54.740Z,6.20
2017-12-25T23:04:22.854Z,5.83
2017-12-25T23:06:50.972Z,6.03
2017-12-25T23:09:19.088Z,5.67
2017-12-25T23:11:47.287Z,5.40
2017-12-25T23:14:15.413Z,5.07
2017-12-25T23:16:44.272Z,5.67
2017-12-25T23:19:12.373Z,4.87
2017-12-25T23:21:40.467Z,4.73
2017-12-25T23:24:08.566Z,5.27
2017-12-25T23:26:37.427Z,5.27
2017-12-25T23:29:05.606Z,4.90
2017-12-25T23:31:34.035Z,4.77
2017-12-25T23:34:02.128Z,4.40
2017-12-25T23:36:30.988Z,4.67
2017-12-25T23:38:59.130Z,4.37
2017-12-25T23:41:27.262Z,4.20
2017-12-25T23:43:55.412Z,4.90
2017-12-25T23:46:23.508Z,4.70
2017-12-25T23:48:51.612Z,5.13
2017-12-25T23:51:19.698Z,4.73
2017-12-25T23:53:47.825Z,4.40
2017-12-25T23:56:16.689Z,4.87
2017-12-25T23:58:44.805Z,4.73
